Time;durP1;ratioP1;P1;durP2;ratioP2;P2;SDS_P1;SDS_P2;PMS_P1;PMS_P2;Temp;Humidity;BMP_temperature;BMP_pressure;BME280_temperature;BME280_humidity;BME280_pressure;Samples;Min_cycle;Max_cycle;Signal;HPM_P1;HPM_P2
2022/08/04 00:01:06;;;;;;;13.82;12.38;;;;;;;20.48;55.26;98679.34;5112608;28;20211;-76
2022/08/04 00:04:01;;;;;;;17.08;12.98;;;;;;;20.46;55.55;98678.09;5111836;28;20023;-77
2022/08/04 00:06:45;;;;;;;16.23;12.43;;;;;;;20.36;55.38;98680.25;5109504;28;20054;-78
2022/08/04 00:09:24;;;;;;;16.13;12.90;;;;;;;20.31;55.58;98672.16;5108741;28;20036;-77
2022/08/04 00:11:55;;;;;;;16.75;13.30;;;;;;;20.29;55.49;98673.66;5108557;28;20019;-77
2022/08/04 00:14:22;;;;;;;13.88;12.38;;;;;;;20.25;55.85;98672.75;5108877;28;20527;-77
2022/08/04 00:16:51;;;;;;;15.73;12.55;;;;;;;20.23;55.85;98679.47;5108441;28;20099;-76
2022/08/04 00:19:28;;;;;;;17.48;13.20;;;;;;;20.19;55.92;98678.56;5107944;28;20015;-76
2022/08/04 00:22:01;;;;;;;15.73;12.50;;;;;;;20.19;55.93;98683.34;5108844;28;20073;-77
2022/08/04 00:24:30;;;;;;;15.48;12.25;;;;;;;20.17;56.07;98672.56;5107396;28;20076;-77
2022/08/04 00:26:56;;;;;;;15.85;13.23;;;;;;;20.15;56.20;98677.69;5109279;28;20078;-76
2022/08/04 00:29:22;;;;;;;16.52;13.40;;;;;;;20.14;56.45;98681.63;5109399;28;20024;-74
2022/08/04 00:31:49;;;;;;;17.15;13.60;;;;;;;20.12;56.38;98675.59;5108833;28;20498;-77
2022/08/04 00:34:15;;;;;;;15.85;13.23;;;;;;;20.10;56.50;98677.09;5108309;28;20552;-75
2022/08/04 00:36:44;;;;;;;15.57;13.43;;;;;;;20.08;56.49;98680.25;5107569;28;20016;-76
2022/08/04 00:39:14;;;;;;;16.38;13.23;;;;;;;20.08;56.58;98681.06;5090566;28;20023;-76
2022/08/04 00:41:49;;;;;;;16.27;13.88;;;;;;;20.07;56.64;98685.00;5109561;28;20051;-75
2022/08/04 00:44:37;;;;;;;15.60;14.00;;;;;;;20.03;56.73;98678.53;5109541;28;20104;-75
2022/08/04 00:47:18;;;;;;;15.67;14.03;;;;;;;20.02;56.92;98688.03;5109462;28;20032;-76
2022/08/04 00:50:03;;;;;;;15.70;14.02;;;;;;;19.99;57.06;98685.97;5110157;28;20088;-75
2022/08/04 00:52:54;;;;;;;18.77;14.27;;;;;;;19.96;57.00;98678.34;5110007;28;20570;-76
2022/08/04 00:55:41;;;;;;;16.58;14.77;;;;;;;19.95;57.23;98678.69;5109508;28;20019;-76
2022/08/04 00:58:26;;;;;;;18.17;14.63;;;;;;;19.92;57.27;98683.00;5108589;28;20032;-76
2022/08/04 01:01:02;;;;;;;16.02;14.27;;;;;;;19.90;57.37;98688.09;5110112;28;20016;-77
2022/08/04 01:03:49;;;;;;;18.00;14.40;;;;;;;19.87;57.39;98684.00;5109354;28;20023;-75
2022/08/04 01:06:38;;;;;;;16.77;14.15;;;;;;;19.82;57.42;98678.69;5108720;28;20054;-76
2022/08/04 01:09:09;;;;;;;16.57;14.83;;;;;;;19.78;57.74;98684.16;5094524;28;20040;-75
2022/08/04 01:11:34;;;;;;;17.55;14.35;;;;;;;19.74;57.83;98679.66;5108300;28;20270;-76
2022/08/04 01:14:12;;;;;;;16.98;14.68;;;;;;;19.71;57.75;98691.50;5108231;28;20372;-75
2022/08/04 01:16:48;;;;;;;16.63;14.80;;;;;;;19.69;58.05;98679.91;5108475;28;20099;-76
2022/08/04 01:19:55;;;;;;;17.52;14.57;;;;;;;19.68;58.08;98679.09;5108476;28;20027;-76
2022/08/04 01:22:58;;;;;;;16.42;14.52;;;;;;;19.68;58.04;98689.41;5040886;28;20063;-76
2022/08/04 01:25:50;;;;;;;18.13;14.30;;;;;;;19.64;58.36;98681.78;5067777;28;20043;-75
2022/08/04 01:28:40;;;;;;;17.05;14.45;;;;;;;19.64;58.54;98692.91;5089064;28;20028;-77
2022/08/04 01:31:52;;;;;;;17.33;14.43;;;;;;;19.60;58.39;98678.06;5107222;28;20035;-77
2022/08/04 01:34:21;;;;;;;17.25;14.45;;;;;;;19.59;58.71;98676.44;5078507;28;20036;-77
2022/08/04 01:36:58;;;;;;;22.13;15.90;;;;;;;19.59;58.71;98670.88;5108523;27;20030;-76
2022/08/04 01:39:48;;;;;;;18.52;14.95;;;;;;;19.58;58.83;98668.44;5112093;28;20749;-77
2022/08/04 01:42:17;;;;;;;18.67;15.35;;;;;;;19.58;59.12;98672.03;5111512;28;20134;-77
2022/08/04 01:44:46;;;;;;;18.40;14.95;;;;;;;19.58;59.02;98676.78;5110045;28;20027;-77
2022/08/04 01:47:13;;;;;;;;;;;;;;;19.58;59.06;98676.78;5112583;28;20050;-77
2022/08/04 01:49:43;;;;;;;17.65;14.80;;;;;;;19.59;59.04;98676.44;5111824;28;19912;-76
2022/08/04 01:52:09;;;;;;;19.40;15.73;;;;;;;19.57;59.14;98673.22;5111687;28;20024;-76
2022/08/04 01:54:38;;;;;;;18.98;15.95;;;;;;;19.55;59.44;98675.53;5111820;28;20026;-77
2022/08/04 01:57:05;;;;;;;19.37;16.80;;;;;;;19.55;59.43;98669.97;5093706;28;20108;-77
2022/08/04 01:59:33;;;;;;;17.90;15.98;;;;;;;19.53;59.39;98666.72;5112007;28;20733;-76
2022/08/04 02:01:58;;;;;;;19.67;16.73;;;;;;;19.50;59.61;98664.63;5111828;28;20034;-77
2022/08/04 02:04:23;;;;;;;18.23;15.63;;;;;;;19.48;59.76;98669.75;5111509;28;20019;-77
2022/08/04 02:06:55;;;;;;;18.80;16.17;;;;;;;19.46;59.52;98672.88;5111629;28;20502;-77
2022/08/04 02:09:35;;;;;;;19.33;16.90;;;;;;;19.43;59.65;98669.97;5093316;28;20027;-77
2022/08/04 02:12:03;;;;;;;21.60;17.08;;;;;;;19.40;59.81;98667.91;5111769;28;20026;-76
2022/08/04 02:14:43;;;;;;;18.98;16.52;;;;;;;19.35;59.64;98663.41;5111606;28;20106;-76
2022/08/04 02:17:13;;;;;;;18.27;15.45;;;;;;;19.32;59.73;98669.66;5112503;28;20020;-76
2022/08/04 02:20:00;;;;;;;18.63;16.05;;;;;;;19.27;59.73;98664.34;5112581;28;20024;-76
2022/08/04 02:22:27;;;;;;;21.63;16.77;;;;;;;19.23;60.10;98658.69;5111781;28;21098;-76
2022/08/04 02:25:04;;;;;;;20.92;16.83;;;;;;;19.16;59.83;98659.25;5112064;28;20020;-76
2022/08/04 02:27:39;;;;;;;19.40;16.45;;;;;;;19.11;60.08;98661.47;5111845;28;20421;-76
2022/08/04 02:30:05;;;;;;;18.55;16.58;;;;;;;19.04;60.11;98656.50;5112440;28;20467;-76
2022/08/04 02:32:38;;;;;;;19.55;17.45;;;;;;;18.99;60.14;98656.72;5110590;28;20099;-76
2022/08/04 02:35:26;;;;;;;20.48;16.83;;;;;;;18.92;60.38;98659.22;5112058;28;20080;-76
2022/08/04 02:38:03;;;;;;;21.60;17.55;;;;;;;18.89;60.41;98649.63;5110058;27;20130;-76
2022/08/04 02:40:29;;;;;;;19.38;16.55;;;;;;;18.86;60.57;98650.31;5111647;28;20038;-77
2022/08/04 02:42:56;;;;;;;19.83;17.40;;;;;;;18.83;60.66;98651.81;5111195;28;20020;-77
2022/08/04 02:45:22;;;;;;;19.65;17.35;;;;;;;18.81;60.62;98651.34;5110371;28;20494;-77
2022/08/04 02:47:51;;;;;;;21.95;18.08;;;;;;;18.81;60.78;98653.34;5111424;27;20019;-76
2022/08/04 02:50:17;;;;;;;;;;;;;;;18.80;60.58;98651.72;5112132;28;20073;-77
2022/08/04 02:52:44;;;;;;;21.80;17.98;;;;;;;18.78;60.71;98649.25;5111477;28;20383;-76
2022/08/04 02:55:10;;;;;;;22.25;17.73;;;;;;;18.77;60.94;98646.84;5111744;28;20043;-76
2022/08/04 02:57:37;;;;;;;22.02;17.70;;;;;;;18.72;61.07;98653.44;5111780;28;20019;-77
2022/08/04 03:00:13;;;;;;;22.98;18.23;;;;;;;18.69;61.06;98652.16;5111699;28;20475;-76
2022/08/04 03:02:45;;;;;;;25.05;18.45;;;;;;;18.65;61.22;98645.66;5111564;28;20031;-76
2022/08/04 03:05:20;;;;;;;22.65;18.35;;;;;;;18.64;61.20;98649.59;5111416;28;20490;-76
2022/08/04 03:08:07;;;;;;;24.00;17.52;;;;;;;18.59;61.13;98650.66;5111333;28;20027;-76
2022/08/04 03:10:49;;;;;;;25.55;17.88;;;;;;;18.57;61.40;98652.97;5110583;28;20047;-76
2022/08/04 03:13:23;;;;;;;23.58;17.85;;;;;;;18.54;61.23;98661.97;5109872;28;20024;-76
2022/08/04 03:16:00;;;;;;;21.52;18.50;;;;;;;18.52;61.38;98663.50;5108502;28;20035;-76
2022/08/04 03:19:03;;;;;;;24.15;18.10;;;;;;;18.49;61.38;98662.19;5110708;28;20028;-76
2022/08/04 03:21:56;;;;;;;22.23;17.67;;;;;;;18.47;61.48;98660.94;5108864;28;20031;-77
2022/08/04 03:24:59;;;;;;;21.70;17.38;;;;;;;18.43;61.57;98663.56;5110392;28;20387;-76
2022/08/04 03:27:57;;;;;;;23.80;18.20;;;;;;;18.41;61.76;98657.56;5092029;28;20020;-77
2022/08/04 03:30:41;;;;;;;20.53;16.73;;;;;;;18.39;61.60;98666.25;5110465;28;20093;-76
2022/08/04 03:33:15;;;;;;;22.23;17.23;;;;;;;18.36;61.87;98660.53;5111305;28;20603;-77
2022/08/04 03:36:18;;;;;;;23.33;16.75;;;;;;;18.34;61.89;98671.22;5111041;27;20107;-77
2022/08/04 03:39:02;;;;;;;26.70;17.85;;;;;;;18.31;62.05;98667.13;5109026;28;20040;-76
2022/08/04 03:41:36;;;;;;;21.15;17.17;;;;;;;18.31;62.07;98667.13;5110605;28;20115;-76
2022/08/04 03:44:04;;;;;;;19.63;17.05;;;;;;;18.30;62.30;98671.91;5110540;28;20115;-77
2022/08/04 03:46:45;;;;;;;22.50;17.30;;;;;;;18.30;62.53;98669.13;5110708;28;20577;-77
2022/08/04 03:49:13;;;;;;;23.63;17.65;;;;;;;18.32;62.47;98671.53;5110477;28;20027;-77
2022/08/04 03:55:00;;;;;;;19.30;16.95;;;;;;;18.39;62.91;98679.28;5109636;28;20592;-77
2022/08/04 03:57:53;;;;;;;20.63;17.75;;;;;;;18.40;62.95;98678.13;5110517;28;20187;-77
2022/08/04 04:00:22;;;;;;;23.17;17.17;;;;;;;18.43;63.08;98681.06;5109121;28;20046;-77
2022/08/04 04:03:15;;;;;;;21.83;17.08;;;;;;;18.45;63.15;98675.97;5110655;28;20431;-77
2022/08/04 04:05:46;;;;;;;21.77;18.00;;;;;;;18.48;63.25;98677.25;5110193;28;20023;-77
2022/08/04 04:08:43;;;;;;;21.45;17.60;;;;;;;18.51;63.17;98684.09;5110513;28;20043;-77
2022/08/04 04:11:26;;;;;;;21.33;18.85;;;;;;;18.54;63.42;98680.63;5110001;28;20031;-76
2022/08/04 04:13:58;;;;;;;21.73;18.23;;;;;;;18.58;63.39;98673.19;5110149;28;20028;-76
2022/08/04 04:17:03;;;;;;;21.13;18.30;;;;;;;18.62;63.50;98673.34;5110289;28;20031;-76
2022/08/04 04:19:37;;;;;;;21.83;18.50;;;;;;;18.66;63.86;98669.50;5108186;28;20496;-77
2022/08/04 04:22:23;;;;;;;23.75;18.55;;;;;;;18.70;63.84;98675.22;5110144;28;20024;-77
2022/08/04 04:24:51;;;;;;;20.92;18.48;;;;;;;18.75;63.95;98675.78;5110203;28;20027;-77
2022/08/04 04:27:58;;;;;;;23.92;19.33;;;;;;;18.79;64.03;98675.88;5108407;28;20213;-76
2022/08/04 04:30:23;;;;;;;24.83;19.13;;;;;;;18.83;64.10;98668.47;5019079;28;20504;-76
2022/08/04 04:33:04;;;;;;;23.63;19.80;;;;;;;18.86;64.16;98678.91;5110019;28;20106;-76
2022/08/04 04:35:44;;;;;;;21.83;19.13;;;;;;;18.91;64.22;98669.56;5108270;28;20072;-77
2022/08/04 04:38:35;;;;;;;22.42;19.23;;;;;;;18.95;64.26;98673.22;5110776;27;20058;-76
2022/08/04 04:41:09;;;;;;;22.60;19.35;;;;;;;19.02;64.44;98678.25;5107557;28;20015;-77
2022/08/04 04:43:59;;;;;;;22.98;19.63;;;;;;;19.04;64.50;98682.31;5108459;28;20028;-77
2022/08/04 04:46:37;;;;;;;22.50;19.50;;;;;;;19.10;64.56;98679.28;5109247;28;20039;-77
2022/08/04 04:49:09;;;;;;;24.98;20.45;;;;;;;19.13;64.65;98686.94;5111230;28;20028;-77
2022/08/04 04:51:40;;;;;;;21.85;18.52;;;;;;;19.17;64.94;98685.09;5110843;28;20384;-77
2022/08/04 04:54:17;;;;;;;24.55;19.95;;;;;;;19.19;64.62;98686.34;5111058;28;20032;-77
2022/08/04 04:56:49;;;;;;;22.73;19.60;;;;;;;19.21;65.04;98674.91;5110696;28;20479;-76
2022/08/04 04:59:20;;;;;;;23.80;19.17;;;;;;;19.25;65.17;98675.00;5113286;28;20076;-79
2022/08/04 05:01:58;;;;;;;22.67;19.75;;;;;;;19.28;65.21;98679.84;5113033;28;20043;-75
2022/08/04 05:04:42;;;;;;;22.27;19.15;;;;;;;19.32;65.58;98676.03;5110892;28;20027;-77
2022/08/04 05:07:38;;;;;;;24.88;21.17;;;;;;;19.37;65.21;98676.94;5110534;28;20597;-76
2022/08/04 05:10:33;;;;;;;25.77;20.65;;;;;;;19.41;65.42;98669.53;5111074;28;20035;-76
2022/08/04 05:13:17;;;;;;;26.42;20.92;;;;;;;19.42;65.33;98673.91;5113272;28;20055;-76
2022/08/04 05:15:47;;;;;;;22.02;18.65;;;;;;;19.47;65.52;98671.72;5113110;28;20035;-76
2022/08/04 05:18:18;;;;;;;20.02;17.90;;;;;;;19.53;65.79;98675.06;5115714;27;20072;-76
2022/08/04 05:20:50;;;;;;;21.40;18.17;;;;;;;19.58;65.74;98680.41;5113988;27;20059;-76
2022/08/04 05:23:24;;;;;;;23.23;18.85;;;;;;;19.61;65.57;98679.69;5115116;27;20023;-76
2022/08/04 05:25:58;;;;;;;20.42;17.48;;;;;;;19.66;65.66;98675.03;5113267;28;20121;-76
2022/08/04 05:28:37;;;;;;;25.55;18.27;;;;;;;19.72;65.46;98680.00;5099562;27;20411;-77
2022/08/04 05:31:11;;;;;;;20.95;17.50;;;;;;;19.78;65.78;98673.03;5112462;28;20076;-77
2022/08/04 05:33:42;;;;;;;20.65;16.38;;;;;;;19.85;65.94;98679.97;5117541;27;20026;-76
2022/08/04 05:36:15;;;;;;;20.48;16.42;;;;;;;19.91;65.98;98686.94;5117388;27;20034;-77
2022/08/04 05:38:42;;;;;;;18.00;15.32;;;;;;;19.96;65.89;98683.09;5114102;28;20090;-76
2022/08/04 05:41:10;;;;;;;18.50;15.52;;;;;;;20.03;66.05;98683.31;5114566;28;20040;-76
2022/08/04 05:43:40;;;;;;;22.30;16.92;;;;;;;20.09;66.25;98687.44;5114574;28;20032;-77
2022/08/04 05:46:07;;;;;;;19.00;15.77;;;;;;;20.15;66.09;98685.22;5114698;28;20034;-73
2022/08/04 05:48:34;;;;;;;20.30;16.10;;;;;;;20.19;65.91;98691.69;5114240;27;20043;-73
2022/08/04 05:51:02;;;;;;;18.20;15.57;;;;;;;20.23;65.98;98695.38;5113886;28;20024;-73
2022/08/04 05:53:28;;;;;;;17.75;15.30;;;;;;;20.27;66.07;98687.94;5113912;28;20031;-73
2022/08/04 05:55:55;;;;;;;18.45;15.43;;;;;;;20.33;65.98;98691.28;5113846;27;20020;-72
2022/08/04 05:58:21;;;;;;;18.45;15.38;;;;;;;20.39;65.88;98684.28;5113580;28;20111;-72
2022/08/04 06:00:48;;;;;;;17.27;15.30;;;;;;;20.46;66.05;98683.66;5115352;27;20020;-72
2022/08/04 06:03:17;;;;;;;17.30;15.30;;;;;;;20.52;65.95;98694.19;5114109;28;20506;-73
2022/08/04 06:05:43;;;;;;;19.52;15.90;;;;;;;20.58;65.96;98694.72;5115314;27;20106;-73
2022/08/04 06:08:09;;;;;;;19.55;15.18;;;;;;;20.62;66.10;98698.44;5095430;28;20383;-73
2022/08/04 06:10:38;;;;;;;16.95;15.05;;;;;;;20.68;66.09;98697.00;5112993;27;20024;-76
2022/08/04 06:13:10;;;;;;;16.55;14.23;;;;;;;20.74;66.01;98691.97;5113078;27;20034;-73
2022/08/04 06:15:39;;;;;;;16.23;14.05;;;;;;;20.82;66.03;98696.56;5116475;27;20024;-72
2022/08/04 06:18:08;;;;;;;16.13;13.65;;;;;;;20.90;66.23;98693.97;5104043;28;20091;-74
2022/08/04 06:20:36;;;;;;;17.85;15.32;;;;;;;20.97;66.08;98696.94;5110176;28;20020;-73
2022/08/04 06:23:06;;;;;;;17.90;14.13;;;;;;;21.03;66.05;98700.25;5112069;28;20035;-71
2022/08/04 06:25:35;;;;;;;17.23;13.95;;;;;;;21.12;66.07;98698.09;5114256;27;20653;-74
2022/08/04 06:28:05;;;;;;;16.45;14.55;;;;;;;21.20;65.95;98697.06;5109991;28;20501;-72
2022/08/04 06:30:32;;;;;;;14.93;13.43;;;;;;;21.29;65.69;98696.91;5113197;27;20107;-72
2022/08/04 06:33:02;;;;;;;14.95;12.95;;;;;;;21.36;65.77;98696.25;5111885;28;20031;-73
2022/08/04 06:35:29;;;;;;;12.95;11.68;;;;;;;21.45;65.46;98704.41;5111974;27;20058;-73
2022/08/04 06:37:55;;;;;;;15.13;12.75;;;;;;;21.53;65.55;98711.78;5112839;27;20043;-73
2022/08/04 06:40:23;;;;;;;14.15;12.57;;;;;;;21.57;65.27;98701.53;5111322;28;20076;-74
2022/08/04 06:42:50;;;;;;;14.55;12.23;;;;;;;21.63;65.40;98705.69;5109608;27;20092;-73
2022/08/04 06:45:18;;;;;;;13.32;11.25;;;;;;;21.70;65.04;98703.03;5110109;27;20156;-74
2022/08/04 06:47:44;;;;;;;13.93;12.50;;;;;;;21.78;64.91;98700.41;5111514;28;20042;-76
2022/08/04 06:50:11;;;;;;;14.55;12.63;;;;;;;21.83;64.76;98692.53;5110625;28;20049;-76
2022/08/04 06:52:38;;;;;;;13.85;12.43;;;;;;;21.90;64.53;98688.28;5092814;28;20243;-75
2022/08/04 06:55:06;;;;;;;13.73;12.32;;;;;;;21.95;64.78;98690.78;5111495;28;20085;-77
2022/08/04 06:57:34;;;;;;;13.52;12.20;;;;;;;22.01;64.31;98687.34;5110966;27;20235;-73
2022/08/04 07:00:10;;;;;;;13.18;11.85;;;;;;;22.08;64.36;98683.06;5110636;28;20024;-75
2022/08/04 07:02:54;;;;;;;13.07;11.23;;;;;;;22.16;64.09;98682.03;5109365;28;20117;-75
2022/08/04 07:05:21;;;;;;;13.35;11.35;;;;;;;22.24;63.94;98682.97;5111130;27;20027;-74
2022/08/04 07:07:47;;;;;;;11.55;10.35;;;;;;;22.28;63.69;98683.88;5093298;28;20030;-74
2022/08/04 07:10:13;;;;;;;13.85;11.93;;;;;;;22.36;63.75;98682.00;5112169;27;20032;-72
2022/08/04 07:12:39;;;;;;;12.90;10.35;;;;;;;22.43;63.45;98688.56;5109389;28;20030;-72
2022/08/04 07:15:07;;;;;;;11.25;10.15;;;;;;;22.51;63.25;98688.69;5112357;27;20023;-73
2022/08/04 07:17:34;;;;;;;12.40;11.05;;;;;;;22.57;63.24;98685.25;5094167;28;20118;-73
2022/08/04 07:20:00;;;;;;;11.63;10.20;;;;;;;22.66;62.96;98698.13;5112216;28;20020;-73
2022/08/04 07:22:26;;;;;;;11.90;10.65;;;;;;;22.73;62.65;98695.47;5111774;28;20031;-73
2022/08/04 07:24:56;;;;;;;11.00;9.85;;;;;;;22.80;62.64;98692.03;5111167;27;20034;-73
2022/08/04 07:27:23;;;;;;;11.07;9.98;;;;;;;22.88;62.42;98690.94;5112949;27;20024;-74
2022/08/04 07:29:49;;;;;;;11.77;10.57;;;;;;;22.94;62.27;98694.25;5113143;27;20039;-73
2022/08/04 07:32:16;;;;;;;10.43;9.45;;;;;;;23.01;62.08;98688.78;5113614;27;20031;-74
2022/08/04 07:34:42;;;;;;;11.65;10.40;;;;;;;23.09;61.78;98692.47;5111862;27;20494;-74
2022/08/04 07:37:08;;;;;;;10.98;9.93;;;;;;;23.15;61.71;98691.00;5110744;27;20480;-74
2022/08/04 07:39:35;;;;;;;10.13;9.13;;;;;;;23.22;61.45;98688.34;5113358;27;20145;-74
2022/08/04 07:42:02;;;;;;;10.25;9.13;;;;;;;23.28;61.16;98697.22;5112361;27;20070;-75
2022/08/04 07:44:32;;;;;;;10.32;8.90;;;;;;;23.34;61.11;98690.09;5109660;28;20024;-74
2022/08/04 07:46:59;;;;;;;11.30;9.57;;;;;;;23.41;60.95;98697.78;5110257;28;20552;-73
2022/08/04 07:49:25;;;;;;;10.02;8.95;;;;;;;23.48;60.71;98703.50;5111461;27;20032;-74
2022/08/04 07:51:52;;;;;;;10.70;9.63;;;;;;;23.54;60.63;98696.41;5110050;28;20051;-74
2022/08/04 07:54:18;;;;;;;10.25;9.02;;;;;;;23.60;60.63;98692.09;5110240;27;20068;-74
2022/08/04 07:56:44;;;;;;;11.40;9.15;;;;;;;23.66;60.12;98698.16;5115447;27;20293;-74
2022/08/04 07:59:10;;;;;;;9.70;8.70;;;;;;;23.73;60.11;98686.25;5112383;27;20472;-74
2022/08/04 08:01:36;;;;;;;9.93;9.02;;;;;;;23.81;59.60;98687.16;5109259;27;20068;-74
2022/08/04 08:04:07;;;;;;;9.90;8.75;;;;;;;23.87;59.69;98682.81;5113443;27;20039;-76
2022/08/04 08:06:35;;;;;;;9.90;8.88;;;;;;;23.97;59.76;98687.75;5110214;28;20028;-74
2022/08/04 08:09:07;;;;;;;11.50;9.95;;;;;;;24.05;59.55;98683.06;5112046;27;20034;-77
2022/08/04 08:11:32;;;;;;;10.00;9.02;;;;;;;24.12;59.18;98685.94;5113507;27;20038;-76
2022/08/04 08:13:58;;;;;;;9.88;8.88;;;;;;;24.18;58.85;98680.84;5109910;27;20035;-72
2022/08/04 08:16:25;;;;;;;10.32;9.15;;;;;;;24.27;59.21;98686.91;5108794;28;20035;-73
2022/08/04 08:18:51;;;;;;;8.57;7.78;;;;;;;24.35;58.88;98682.22;5109511;28;20043;-73
2022/08/04 08:21:19;;;;;;;8.43;7.63;;;;;;;24.40;58.18;98679.06;5109223;28;20022;-73
2022/08/04 08:23:45;;;;;;;8.70;7.95;;;;;;;24.48;58.14;98677.13;5108787;27;20019;-70
2022/08/04 08:26:11;;;;;;;9.05;8.25;;;;;;;24.55;58.00;98687.59;5111117;27;20464;-70
2022/08/04 08:28:36;;;;;;;8.20;7.15;;;;;;;24.65;57.65;98684.09;5110463;27;20114;-70
2022/08/04 08:31:02;;;;;;;9.05;8.15;;;;;;;24.74;57.48;98684.63;5106817;27;20043;-70
2022/08/04 08:33:27;;;;;;;8.50;7.70;;;;;;;24.83;57.13;98687.09;5108582;27;20028;-71
2022/08/04 08:36:06;;;;;;;9.80;8.50;;;;;;;24.86;56.62;98689.13;5111414;27;20113;-71
2022/08/04 08:38:58;;;;;;;9.57;8.25;;;;;;;24.95;57.37;98686.81;5107408;27;20044;-71
2022/08/04 08:41:51;;;;;;;9.00;8.07;;;;;;;25.05;56.85;98685.28;5062352;27;20039;-70
2022/08/04 08:44:47;;;;;;;8.85;7.97;;;;;;;25.13;56.46;98674.91;5108753;27;20383;-70
2022/08/04 08:47:43;;;;;;;8.48;7.68;;;;;;;25.16;56.06;98684.56;5105096;28;20039;-71
2022/08/04 08:50:17;;;;;;;10.05;8.20;;;;;;;25.23;56.23;98687.44;5106439;28;20118;-70
2022/08/04 08:52:52;;;;;;;9.68;8.68;;;;;;;25.31;56.15;98691.88;5107569;28;20524;-70
2022/08/04 08:55:41;;;;;;;8.52;7.72;;;;;;;25.40;56.11;98689.53;5106866;28;20043;-70
2022/08/04 08:58:07;;;;;;;9.00;8.20;;;;;;;25.48;55.46;98684.81;5106301;28;20110;-71
2022/08/04 09:00:46;;;;;;;9.68;8.68;;;;;;;25.54;55.50;98690.88;5108245;28;20154;-71
2022/08/04 09:03:42;;;;;;;8.82;8.07;;;;;;;25.65;55.15;98690.94;5111713;28;20107;-70
2022/08/04 09:06:20;;;;;;;8.75;7.95;;;;;;;25.69;54.77;98688.94;5106673;28;20031;-71
2022/08/04 09:09:06;;;;;;;9.15;8.25;;;;;;;25.71;54.30;98690.16;5110819;28;21651;-71
2022/08/04 09:11:48;;;;;;;9.40;8.45;;;;;;;25.75;54.13;98690.19;5115358;28;20197;-70
2022/08/04 09:14:53;;;;;;;8.77;7.97;;;;;;;25.81;54.40;98684.97;5109929;28;20399;-73
2022/08/04 09:18:17;;;;;;;9.27;8.40;;;;;;;25.91;54.10;98677.78;5109249;28;20388;-71
2022/08/04 09:21:04;;;;;;;10.30;8.18;;;;;;;26.00;53.87;98681.06;5004632;28;20224;-72
2022/08/04 09:23:48;;;;;;;8.50;7.72;;;;;;;26.01;53.73;98683.47;5092758;28;20046;-71
2022/08/04 09:26:29;;;;;;;8.65;7.85;;;;;;;26.10;53.89;98680.28;5110205;28;20019;-70
2022/08/04 09:29:14;;;;;;;8.75;7.38;;;;;;;26.17;53.64;98673.13;5109747;28;20023;-72
2022/08/04 09:31:52;;;;;;;8.55;7.72;;;;;;;26.22;53.29;98669.94;5110127;28;20027;-72
2022/08/04 09:34:42;;;;;;;8.20;7.30;;;;;;;26.32;53.19;98679.59;5110953;28;20030;-70
2022/08/04 09:37:15;;;;;;;7.28;6.57;;;;;;;26.40;52.99;98675.59;5111051;28;20043;-72
2022/08/04 09:39:46;;;;;;;8.02;7.32;;;;;;;26.48;52.58;98671.59;5108992;28;20640;-70
2022/08/04 09:42:27;;;;;;;9.35;7.47;;;;;;;26.54;52.02;98672.00;5110671;28;20032;-74
2022/08/04 09:45:11;;;;;;;8.52;7.72;;;;;;;26.59;51.97;98665.97;5109772;28;20115;-72
2022/08/04 09:47:52;;;;;;;9.32;7.80;;;;;;;26.62;51.70;98662.38;5109349;28;20032;-71
2022/08/04 09:50:38;;;;;;;8.25;7.45;;;;;;;26.67;51.88;98664.78;5111195;28;20121;-71
2022/08/04 09:53:37;;;;;;;9.63;7.72;;;;;;;26.76;51.44;98653.13;5109565;28;20030;-72
2022/08/04 09:56:08;;;;;;;7.38;6.68;;;;;;;26.83;51.27;98661.63;5107344;28;20031;-72
2022/08/04 09:59:00;;;;;;;7.38;6.68;;;;;;;26.89;51.52;98665.63;5112239;27;20505;-71
2022/08/04 10:01:28;;;;;;;7.32;6.72;;;;;;;26.95;50.91;98660.41;5112017;27;20024;-70
2022/08/04 10:03:57;;;;;;;7.55;6.65;;;;;;;27.00;50.88;98656.38;5111817;27;20038;-71
2022/08/04 10:06:46;;;;;;;7.68;6.97;;;;;;;27.09;51.20;98661.59;5110878;27;20168;-71
2022/08/04 10:09:30;;;;;;;;;;;;;;;27.14;50.44;98659.19;5112438;27;20503;-71
2022/08/04 10:11:56;;;;;;;6.78;6.13;;;;;;;27.17;50.25;98663.19;5109390;27;19923;-74
2022/08/04 10:14:49;;;;;;;6.10;5.60;;;;;;;27.22;49.94;98668.41;5113161;27;20025;-72
2022/08/04 10:17:42;;;;;;;6.78;6.18;;;;;;;27.29;49.79;98668.41;5112656;27;20127;-71
2022/08/04 10:20:56;;;;;;;6.70;5.75;;;;;;;27.36;49.51;98666.78;5111705;27;20067;-71
2022/08/04 10:23:39;;;;;;;6.13;5.63;;;;;;;27.46;49.19;98663.94;5034711;28;20114;-72
2022/08/04 10:26:19;;;;;;;5.95;5.45;;;;;;;27.55;48.99;98657.91;5111388;27;20034;-72
2022/08/04 10:28:55;;;;;;;7.53;6.80;;;;;;;27.63;48.69;98659.50;5111501;28;20059;-70
2022/08/04 10:31:32;;;;;;;5.88;5.30;;;;;;;27.77;49.03;98658.63;5111570;27;20061;-70
2022/08/04 10:34:04;;;;;;;5.53;5.03;;;;;;;27.88;48.27;98658.63;5111062;28;20100;-72
2022/08/04 10:36:40;;;;;;;5.43;4.93;;;;;;;27.92;47.75;98650.94;5113238;27;20027;-69
2022/08/04 10:39:11;;;;;;;5.55;5.05;;;;;;;27.99;47.21;98646.47;5110728;28;20023;-71
2022/08/04 10:41:59;;;;;;;5.97;4.97;;;;;;;28.03;47.04;98644.44;5117216;27;20034;-70
2022/08/04 10:44:47;;;;;;;5.63;5.22;;;;;;;28.08;46.70;98646.84;5096926;27;20039;-69
2022/08/04 10:47:21;;;;;;;5.50;4.95;;;;;;;28.13;46.20;98649.25;5112987;27;20020;-70
2022/08/04 10:49:53;;;;;;;6.60;5.00;;;;;;;28.17;46.42;98646.41;5114707;27;20072;-69
2022/08/04 10:52:18;;;;;;;6.00;5.50;;;;;;;28.22;45.85;98638.34;5110074;28;20039;-71
2022/08/04 10:54:58;;;;;;;6.05;5.55;;;;;;;28.27;46.12;98639.13;5112032;28;20033;-71
2022/08/04 10:57:54;;;;;;;5.80;5.25;;;;;;;28.34;46.04;98641.88;5114301;27;20047;-69
2022/08/04 11:00:28;;;;;;;5.93;5.30;;;;;;;28.43;46.04;98636.59;5109713;28;20123;-68
2022/08/04 11:03:14;;;;;;;5.50;5.00;;;;;;;28.53;46.21;98641.34;5111946;27;20389;-68
2022/08/04 11:05:57;;;;;;;4.85;4.38;;;;;;;28.63;46.05;98633.22;5109851;28;20118;-69
2022/08/04 11:08:52;;;;;;;4.93;4.53;;;;;;;28.73;45.61;98642.81;5110291;27;20035;-69
2022/08/04 11:11:38;;;;;;;5.57;4.93;;;;;;;28.79;45.19;98630.69;5108855;27;20036;-69
2022/08/04 11:14:12;;;;;;;5.63;5.13;;;;;;;28.85;45.17;98628.25;5113072;27;20023;-68
2022/08/04 11:16:43;;;;;;;6.38;5.20;;;;;;;28.89;44.70;98633.84;5110048;27;20810;-69
2022/08/04 11:19:14;;;;;;;5.32;4.85;;;;;;;28.94;44.83;98636.22;5106455;28;20446;-69
2022/08/04 11:21:48;;;;;;;6.35;4.80;;;;;;;29.01;44.80;98638.16;5111343;27;20031;-68
2022/08/04 11:24:21;;;;;;;5.00;4.60;;;;;;;29.05;44.70;98631.28;5110057;28;20415;-70
2022/08/04 11:27:00;;;;;;;6.50;5.40;;;;;;;29.10;44.51;98636.50;5110216;27;20036;-69
2022/08/04 11:29:31;;;;;;;;;;;;;;;29.18;44.63;98631.56;5109506;28;20110;-70
2022/08/04 11:32:00;;;;;;;6.60;6.00;;;;;;;29.24;44.58;98626.25;5111113;27;19923;-69
2022/08/04 11:34:26;;;;;;;6.32;5.82;;;;;;;29.29;44.63;98639.91;5109072;28;20071;-69
2022/08/04 11:36:54;;;;;;;6.63;6.03;;;;;;;29.32;44.12;98636.25;5104887;28;20526;-68
2022/08/04 11:39:25;;;;;;;6.05;5.50;;;;;;;29.34;44.41;98639.47;5109962;27;20076;-70
2022/08/04 11:42:17;;;;;;;6.30;5.70;;;;;;;29.35;43.94;98632.59;5107053;28;20051;-69
2022/08/04 11:44:48;;;;;;;7.47;5.43;;;;;;;29.39;44.03;98635.41;5109210;27;20841;-68
2022/08/04 11:47:39;;;;;;;7.00;5.90;;;;;;;29.40;44.04;98629.34;5110104;27;20028;-69
2022/08/04 11:50:10;;;;;;;6.20;5.55;;;;;;;29.47;44.06;98624.84;5051692;27;20044;-69
2022/08/04 11:52:40;;;;;;;5.90;5.40;;;;;;;29.57;43.64;98618.25;5107270;28;20480;-70
2022/08/04 11:55:10;;;;;;;6.20;5.60;;;;;;;29.66;44.06;98624.19;5107438;28;20116;-68
2022/08/04 11:57:38;;;;;;;6.05;5.45;;;;;;;29.77;43.64;98626.09;5109027;28;20023;-69
2022/08/04 12:00:08;;;;;;;5.70;5.20;;;;;;;29.83;43.49;98632.88;5103081;27;20065;-69
2022/08/04 12:02:55;;;;;;;5.40;4.82;;;;;;;29.91;43.40;98622.28;5108560;28;20515;-69
2022/08/04 12:05:29;;;;;;;7.50;5.45;;;;;;;30.02;43.89;98616.50;5107788;28;20096;-70
2022/08/04 12:08:28;;;;;;;5.82;5.38;;;;;;;30.12;43.24;98612.72;5089635;28;20031;-70